Time;durP1;ratioP1;P1;durP2;ratioP2;P2;SDS_P1;SDS_P2;PMS_P1;PMS_P2;Temp;Humidity;BMP_temperature;BMP_pressure;BME280_temperature;BME280_humidity;BME280_pressure;Samples;Min_cycle;Max_cycle;Signal;HPM_P1;HPM_P2
2023/04/09 00:01:21;;;;;;;;;;;14.00;53.60;;;;;;5115116;28;19924;-77
2023/04/09 00:03:46;;;;;;;;;;;14.00;53.60;;;;;;5097023;28;19928;-77
2023/04/09 00:06:12;;;;;;;;;;;14.00;53.60;;;;;;5096413;28;19919;-77
2023/04/09 00:08:37;;;;;;;;;;;14.00;53.60;;;;;;5096785;28;20374;-77
2023/04/09 00:11:03;;;;;;;;;;;14.00;53.60;;;;;;5115108;28;19919;-77
2023/04/09 00:13:28;;;;;;;;;;;14.00;53.60;;;;;;5096995;28;20044;-77
2023/04/09 00:15:54;;;;;;;;;;;14.00;53.70;;;;;;5114912;28;20263;-76
2023/04/09 00:18:20;;;;;;;;;;;14.00;53.70;;;;;;5096524;28;19927;-76
2023/04/09 00:20:45;;;;;;;;;;;14.00;53.70;;;;;;5096463;28;19923;-74
2023/04/09 00:23:11;;;;;;;;;;;14.00;53.70;;;;;;5096352;28;20431;-77
2023/04/09 00:25:36;;;;;;;;;;;14.00;53.70;;;;;;5096710;28;19919;-77
2023/04/09 00:28:02;;;;;;;;;;;14.00;53.70;;;;;;5096604;28;19919;-77
2023/04/09 00:30:28;;;;;;;;;;;14.00;53.80;;;;;;5096622;28;20275;-77
2023/04/09 00:32:54;;;;;;;;;;;14.00;53.80;;;;;;5115144;28;19930;-77
2023/04/09 00:35:19;;;;;;;;;;;14.00;53.80;;;;;;5114682;28;19923;-77
2023/04/09 00:37:45;;;;;;;;;;;14.00;53.80;;;;;;5096183;28;19919;-77
2023/04/09 00:40:10;;;;;;;;;;;14.00;53.80;;;;;;5096209;28;19930;-77
2023/04/09 00:42:37;;;;;;;;;;;14.00;53.80;;;;;;5095995;28;19919;-77
2023/04/09 00:45:03;;;;;;;;;;;14.00;53.80;;;;;;5096118;28;19946;-77
2023/04/09 00:47:29;;;;;;;;;;;14.00;53.80;;;;;;5095999;28;19985;-77
2023/04/09 00:49:56;;;;;;;;;;;14.00;53.80;;;;;;5096218;28;20382;-77
2023/04/09 00:52:22;;;;;;;;;;;14.00;53.80;;;;;;5095957;28;19923;-77
2023/04/09 00:54:48;;;;;;;;;;;14.00;53.80;;;;;;5096144;28;19927;-77
2023/04/09 00:57:14;;;;;;;;;;;13.90;53.80;;;;;;5114426;28;19987;-77
2023/04/09 00:59:40;;;;;;;;;;;13.90;53.80;;;;;;5095773;28;20390;-77
2023/04/09 01:02:05;;;;;;;;;;;14.00;53.80;;;;;;5114284;28;19927;-77
2023/04/09 01:04:31;;;;;;;;;;;14.00;53.80;;;;;;5113897;28;19919;-77
2023/04/09 01:06:59;;;;;;;;;;;13.90;53.80;;;;;;5095900;28;20569;-77
2023/04/09 01:17:32;;;;;;;;;;;14.00;53.90;;;;;;5110217;27;19912;-77
2023/04/09 01:20:18;;;;;;;;;;;13.90;53.80;;;;;;5108810;28;19920;-77
2023/04/09 01:23:03;;;;;;;;;;;13.90;53.80;;;;;;5108892;28;19920;-77
2023/04/09 01:25:36;;;;;;;;;;;13.90;53.80;;;;;;5108769;28;20340;-77
2023/04/09 01:30:47;;;;;;;;;;;13.90;53.80;;;;;;5110166;27;20423;-77
2023/04/09 01:33:14;;;;;;;;;;;13.90;53.80;;;;;;5108978;28;19919;-77
2023/04/09 01:35:44;;;;;;;;;;;13.90;53.80;;;;;;5109092;28;19927;-78
2023/04/09 01:38:11;;;;;;;;;;;13.90;53.90;;;;;;5109030;28;20347;-78
2023/04/09 01:40:36;;;;;;;;;;;13.90;53.90;;;;;;5109999;28;19924;-77
2023/04/09 01:43:02;;;;;;;;;;;13.90;53.80;;;;;;5108055;28;20023;-78
2023/04/09 01:45:28;;;;;;;;;;;13.90;53.80;;;;;;5108468;28;19973;-78
2023/04/09 01:47:54;;;;;;;;;;;13.90;53.90;;;;;;5109120;28;19920;-78
2023/04/09 01:50:20;;;;;;;;;;;13.90;53.90;;;;;;5108520;28;19951;-78
2023/04/09 01:52:46;;;;;;;;;;;13.90;53.90;;;;;;5108606;28;19928;-77
2023/04/09 01:55:11;;;;;;;;;;;13.90;53.90;;;;;;5109936;28;19958;-76
2023/04/09 01:57:37;;;;;;;;;;;13.90;54.00;;;;;;5108799;28;20283;-77
2023/04/09 02:00:03;;;;;;;;;;;13.90;54.00;;;;;;5108699;28;19920;-77
2023/04/09 02:02:35;;;;;;;;;;;13.90;54.00;;;;;;5108335;28;19924;-77
2023/04/09 02:05:03;;;;;;;;;;;13.90;54.00;;;;;;5109940;28;19947;-77
2023/04/09 02:10:12;;;;;;;;;;;13.90;54.00;;;;;;5110351;27;19912;-78
2023/04/09 02:12:39;;;;;;;;;;;13.80;53.90;;;;;;5143574;27;19946;-77
2023/04/09 02:15:06;;;;;;;;;;;13.80;54.00;;;;;;5110260;28;20291;-77
2023/04/09 02:17:31;;;;;;;;;;;13.90;54.00;;;;;;5108775;28;19924;-78
2023/04/09 02:19:57;;;;;;;;;;;13.90;54.00;;;;;;5109214;28;19926;-73
2023/04/09 02:22:22;;;;;;;;;;;13.90;54.00;;;;;;5108992;28;20231;-76
2023/04/09 02:24:48;;;;;;;;;;;13.80;54.00;;;;;;5108726;28;19920;-77
2023/04/09 02:27:13;;;;;;;;;;;13.80;54.00;;;;;;5108629;28;20381;-73
2023/04/09 02:29:39;;;;;;;;;;;13.80;54.00;;;;;;5108553;28;19923;-77
2023/04/09 02:32:05;;;;;;;;;;;13.80;54.00;;;;;;5143376;27;19920;-77
2023/04/09 02:34:30;;;;;;;;;;;13.90;54.00;;;;;;5108604;28;19927;-77
2023/04/09 02:36:56;;;;;;;;;;;13.80;53.90;;;;;;5108425;28;19957;-74
2023/04/09 02:39:21;;;;;;;;;;;13.80;54.00;;;;;;5108792;28;20166;-77
2023/04/09 02:41:46;;;;;;;;;;;13.80;54.00;;;;;;5108304;28;20391;-73
2023/04/09 02:44:12;;;;;;;;;;;13.80;54.00;;;;;;5108548;28;20013;-74
2023/04/09 02:46:38;;;;;;;;;;;13.80;54.00;;;;;;5108513;28;20017;-78
2023/04/09 02:49:04;;;;;;;;;;;13.80;54.00;;;;;;5108378;28;20406;-77
2023/04/09 02:51:29;;;;;;;;;;;13.80;54.00;;;;;;5142951;27;19920;-77
2023/04/09 02:53:54;;;;;;;;;;;13.90;54.10;;;;;;5109354;28;20407;-76
2023/04/09 02:56:20;;;;;;;;;;;13.80;54.00;;;;;;5109688;28;19926;-77
2023/04/09 02:58:48;;;;;;;;;;;13.80;54.10;;;;;;5108016;28;20294;-72
2023/04/09 03:01:13;;;;;;;;;;;13.80;54.10;;;;;;5108256;28;19920;-77
2023/04/09 03:03:40;;;;;;;;;;;13.80;54.10;;;;;;5109334;28;19927;-73
2023/04/09 03:06:06;;;;;;;;;;;13.80;54.10;;;;;;5107988;28;19920;-77
2023/04/09 03:08:31;;;;;;;;;;;13.80;54.10;;;;;;5107647;28;19928;-77
2023/04/09 03:10:57;;;;;;;;;;;13.80;54.10;;;;;;5109073;28;19924;-72
2023/04/09 03:13:22;;;;;;;;;;;13.80;54.10;;;;;;5107822;28;19949;-77
2023/04/09 03:15:52;;;;;;;;;;;13.80;54.10;;;;;;5107729;28;19920;-74
2023/04/09 03:18:17;;;;;;;;;;;13.80;54.20;;;;;;5108076;28;19967;-76
2023/04/09 03:20:43;;;;;;;;;;;13.80;54.20;;;;;;5098597;28;20414;-77
2023/04/09 03:23:09;;;;;;;;;;;13.80;54.20;;;;;;5128052;27;19923;-74
2023/04/09 03:25:34;;;;;;;;;;;13.80;54.20;;;;;;5094297;28;19965;-77
2023/04/09 03:28:00;;;;;;;;;;;13.80;54.20;;;;;;5095060;28;20383;-77
2023/04/09 03:30:25;;;;;;;;;;;13.80;54.20;;;;;;5095278;28;19921;-73
2023/04/09 03:32:51;;;;;;;;;;;13.80;54.20;;;;;;5093767;28;19924;-77
2023/04/09 03:35:16;;;;;;;;;;;13.80;54.20;;;;;;5127880;27;19920;-73
2023/04/09 03:37:42;;;;;;;;;;;13.80;54.20;;;;;;5094021;28;19920;-73
2023/04/09 03:40:07;;;;;;;;;;;13.80;54.20;;;;;;5093557;28;20294;-77
2023/04/09 03:42:33;;;;;;;;;;;13.80;54.20;;;;;;5093721;28;19974;-77
2023/04/09 03:44:59;;;;;;;;;;;13.80;54.20;;;;;;5094866;28;20155;-72
2023/04/09 03:47:24;;;;;;;;;;;13.80;54.20;;;;;;5093673;28;20525;-78
2023/04/09 03:49:50;;;;;;;;;;;13.80;54.20;;;;;;5093394;28;19928;-78
2023/04/09 03:52:15;;;;;;;;;;;13.80;54.20;;;;;;5093758;28;20010;-74
2023/04/09 03:54:42;;;;;;;;;;;13.80;54.20;;;;;;5093325;28;19930;-77
2023/04/09 03:57:07;;;;;;;;;;;13.80;54.20;;;;;;5093713;28;20280;-76
2023/04/09 03:59:33;;;;;;;;;;;13.80;54.20;;;;;;5093251;28;19920;-78
2023/04/09 04:01:58;;;;;;;;;;;13.80;54.20;;;;;;5127662;27;19963;-78
2023/04/09 04:04:24;;;;;;;;;;;13.80;54.20;;;;;;5093147;28;19920;-77
2023/04/09 04:06:49;;;;;;;;;;;13.80;54.20;;;;;;5093174;28;19920;-77
2023/04/09 04:09:15;;;;;;;;;;;13.80;54.30;;;;;;5092798;28;19928;-78
2023/04/09 04:11:40;;;;;;;;;;;13.80;54.30;;;;;;5092960;28;20390;-77
2023/04/09 04:14:06;;;;;;;;;;;13.80;54.30;;;;;;5093026;28;19920;-77
2023/04/09 04:16:31;;;;;;;;;;;13.90;54.30;;;;;;5093225;28;20044;-77
2023/04/09 04:18:57;;;;;;;;;;;13.70;54.20;;;;;;5093310;28;19972;-77
2023/04/09 04:21:22;;;;;;;;;;;13.80;54.30;;;;;;5092879;28;19920;-75
2023/04/09 04:23:48;;;;;;;;;;;13.80;54.30;;;;;;5093090;28;19926;-77
2023/04/09 04:26:13;;;;;;;;;;;13.70;54.20;;;;;;5092754;28;19920;-78
2023/04/09 04:28:39;;;;;;;;;;;13.80;54.30;;;;;;5093040;28;20014;-77
2023/04/09 04:31:06;;;;;;;;;;;13.80;54.30;;;;;;5092278;28;19928;-73
2023/04/09 04:33:31;;;;;;;;;;;13.80;54.30;;;;;;5092207;28;19924;-74
2023/04/09 04:36:05;;;;;;;;;;;13.80;54.30;;;;;;5092767;28;19920;-77
2023/04/09 04:38:31;;;;;;;;;;;13.80;54.40;;;;;;5092980;28;19920;-77
2023/04/09 04:40:56;;;;;;;;;;;13.80;54.40;;;;;;5093760;28;20383;-77
2023/04/09 04:43:22;;;;;;;;;;;13.70;54.30;;;;;;5092807;28;19920;-77
2023/04/09 04:45:47;;;;;;;;;;;13.70;54.30;;;;;;5092775;28;20378;-78
2023/04/09 04:48:13;;;;;;;;;;;13.70;54.30;;;;;;5092344;28;19963;-78
2023/04/09 04:50:38;;;;;;;;;;;13.70;54.30;;;;;;5093617;28;19920;-77
2023/04/09 04:53:04;;;;;;;;;;;13.70;54.30;;;;;;5093634;28;20023;-78
2023/04/09 04:55:29;;;;;;;;;;;13.70;54.30;;;;;;5092260;28;19923;-76
2023/04/09 04:57:55;;;;;;;;;;;13.70;54.30;;;;;;5092124;28;19924;-77
2023/04/09 05:00:20;;;;;;;;;;;13.70;54.30;;;;;;5091984;28;20015;-76
2023/04/09 05:02:46;;;;;;;;;;;13.70;54.20;;;;;;5092078;28;19920;-77
2023/04/09 05:05:11;;;;;;;;;;;13.70;54.20;;;;;;5092086;28;19923;-76
2023/04/09 05:07:37;;;;;;;;;;;13.70;54.30;;;;;;5091652;28;19942;-73
2023/04/09 05:10:02;;;;;;;;;;;13.70;54.20;;;;;;5112853;28;20021;-77
2023/04/09 05:12:30;;;;;;;;;;;13.70;54.30;;;;;;5095117;28;20291;-77
2023/04/09 05:14:55;;;;;;;;;;;13.70;54.30;;;;;;5095623;28;19976;-73
2023/04/09 05:17:22;;;;;;;;;;;13.70;54.30;;;;;;5113470;28;20426;-76
2023/04/09 05:19:51;;;;;;;;;;;13.70;54.30;;;;;;5095566;28;19919;-76
2023/04/09 05:22:17;;;;;;;;;;;13.70;54.40;;;;;;5113462;28;19919;-77
2023/04/09 05:24:42;;;;;;;;;;;13.70;54.30;;;;;;5095168;28;19941;-74
2023/04/09 05:27:08;;;;;;;;;;;13.70;54.30;;;;;;5113243;28;19928;-77
2023/04/09 05:29:33;;;;;;;;;;;13.70;54.20;;;;;;5113598;28;19924;-77
2023/04/09 05:31:59;;;;;;;;;;;13.70;54.20;;;;;;5094981;28;20007;-77
2023/04/09 05:34:25;;;;;;;;;;;13.70;54.20;;;;;;5095313;28;19947;-77
2023/04/09 05:36:51;;;;;;;;;;;13.70;54.20;;;;;;5094954;28;19920;-77
2023/04/09 05:39:17;;;;;;;;;;;13.70;54.20;;;;;;5094886;28;19919;-76
2023/04/09 05:41:43;;;;;;;;;;;13.70;54.20;;;;;;5094420;28;19923;-78
2023/04/09 05:44:10;;;;;;;;;;;13.70;54.20;;;;;;5094505;28;19963;-78
2023/04/09 05:46:35;;;;;;;;;;;13.70;54.20;;;;;;5095138;28;19930;-78
2023/04/09 05:49:01;;;;;;;;;;;13.70;54.20;;;;;;5094646;28;19928;-77
2023/04/09 05:51:26;;;;;;;;;;;13.70;54.20;;;;;;5095003;28;19920;-75
2023/04/09 05:53:52;;;;;;;;;;;13.70;54.20;;;;;;5094649;28;20439;-74
2023/04/09 05:56:18;;;;;;;;;;;13.70;54.20;;;;;;5095018;28;19919;-77
2023/04/09 05:58:43;;;;;;;;;;;13.70;54.20;;;;;;5112774;28;19920;-77
2023/04/09 06:01:09;;;;;;;;;;;13.70;54.20;;;;;;5094628;28;19927;-77
2023/04/09 06:03:35;;;;;;;;;;;13.70;54.20;;;;;;5094937;28;19967;-78
2023/04/09 06:06:00;;;;;;;;;;;13.70;54.20;;;;;;5094910;28;19920;-77
2023/04/09 06:08:25;;;;;;;;;;;13.70;54.20;;;;;;5094343;28;20455;-77
2023/04/09 06:10:51;;;;;;;;;;;13.70;54.20;;;;;;5094548;28;19924;-77
2023/04/09 06:13:16;;;;;;;;;;;13.70;54.20;;;;;;5094616;28;19920;-76
2023/04/09 06:15:42;;;;;;;;;;;13.70;54.20;;;;;;5094410;28;19927;-77
2023/04/09 06:18:07;;;;;;;;;;;13.70;54.20;;;;;;5094477;28;19946;-77
2023/04/09 06:20:33;;;;;;;;;;;13.70;54.20;;;;;;5112617;28;19952;-77
2023/04/09 06:22:59;;;;;;;;;;;13.70;54.20;;;;;;5112224;28;20348;-77
2023/04/09 06:25:24;;;;;;;;;;;13.70;54.20;;;;;;5094187;28;19920;-77
2023/04/09 06:27:50;;;;;;;;;;;13.70;54.10;;;;;;5094560;28;19927;-76
2023/04/09 06:30:16;;;;;;;;;;;13.70;54.20;;;;;;5094833;28;20363;-74
2023/04/09 06:32:41;;;;;;;;;;;13.70;54.10;;;;;;5094287;28;19967;-77
2023/04/09 06:35:07;;;;;;;;;;;13.70;54.10;;;;;;5094604;28;19969;-74
2023/04/09 06:37:33;;;;;;;;;;;13.70;54.10;;;;;;5094662;28;19919;-77
2023/04/09 06:39:58;;;;;;;;;;;13.70;54.10;;;;;;5094195;28;19941;-78
2023/04/09 06:42:25;;;;;;;;;;;13.70;54.10;;;;;;5094556;28;19919;-77
2023/04/09 06:44:51;;;;;;;;;;;13.70;54.10;;;;;;5094373;28;19927;-74
2023/04/09 06:47:16;;;;;;;;;;;13.70;54.00;;;;;;5094245;28;19946;-78
2023/04/09 06:49:41;;;;;;;;;;;13.70;54.00;;;;;;5094004;28;19935;-78
2023/04/09 06:52:07;;;;;;;;;;;13.70;54.00;;;;;;5112569;28;19920;-76
2023/04/09 06:54:32;;;;;;;;;;;13.70;54.00;;;;;;5094152;28;20002;-76
2023/04/09 06:56:58;;;;;;;;;;;13.70;54.00;;;;;;5116191;28;19919;-76
2023/04/09 06:59:23;;;;;;;;;;;13.70;54.00;;;;;;5097872;28;20000;-76
2023/04/09 07:01:49;;;;;;;;;;;13.70;54.00;;;;;;5098062;28;20023;-77
2023/04/09 07:04:15;;;;;;;;;;;13.70;53.90;;;;;;5098164;28;19926;-77
2023/04/09 07:06:40;;;;;;;;;;;13.70;53.90;;;;;;5097735;28;19988;-76
2023/04/09 07:09:06;;;;;;;;;;;13.70;53.90;;;;;;5097370;28;19924;-74
2023/04/09 07:11:31;;;;;;;;;;;13.70;53.90;;;;;;5115916;28;19946;-77
2023/04/09 07:13:57;;;;;;;;;;;13.70;53.90;;;;;;5097646;28;19926;-76
2023/04/09 07:16:23;;;;;;;;;;;13.70;54.60;;;;;;5097722;28;19923;-76
2023/04/09 07:18:48;;;;;;;;;;;13.70;53.80;;;;;;5097481;28;19959;-77
2023/04/09 07:21:14;;;;;;;;;;;13.70;53.80;;;;;;5097626;28;19919;-77
2023/04/09 07:23:40;;;;;;;;;;;13.70;53.80;;;;;;5097388;28;19962;-74
2023/04/09 07:26:05;;;;;;;;;;;13.70;53.80;;;;;;5097373;28;19962;-76
2023/04/09 07:28:31;;;;;;;;;;;13.70;53.70;;;;;;5097578;28;20243;-76
2023/04/09 07:30:57;;;;;;;;;;;13.70;53.70;;;;;;5097420;28;19920;-77
2023/04/09 07:33:23;;;;;;;;;;;13.70;53.70;;;;;;5097269;28;19973;-77
2023/04/09 07:35:48;;;;;;;;;;;13.70;53.70;;;;;;5097477;28;19994;-74
2023/04/09 07:38:15;;;;;;;;;;;13.70;53.70;;;;;;5097329;28;20389;-77
2023/04/09 07:40:40;;;;;;;;;;;13.80;53.70;;;;;;5097362;28;19919;-76
2023/04/09 07:43:06;;;;;;;;;;;13.70;53.70;;;;;;5115264;28;20286;-77
2023/04/09 07:45:31;;;;;;;;;;;13.80;53.70;;;;;;5115307;28;19931;-77
2023/04/09 07:47:57;;;;;;;;;;;13.80;53.70;;;;;;5096761;28;19919;-77
2023/04/09 07:50:23;;;;;;;;;;;13.80;54.40;;;;;;5096898;28;19920;-77
2023/04/09 07:52:48;;;;;;;;;;;13.80;53.70;;;;;;5096907;28;19920;-74
2023/04/09 07:55:14;;;;;;;;;;;13.80;53.70;;;;;;5097105;28;20367;-73
2023/04/09 07:57:41;;;;;;;;;;;13.80;53.70;;;;;;5097126;28;19920;-77
2023/04/09 08:00:07;;;;;;;;;;;13.80;53.70;;;;;;5096878;28;19920;-77
2023/04/09 08:02:33;;;;;;;;;;;13.80;53.70;;;;;;5096581;28;20383;-77
2023/04/09 08:04:59;;;;;;;;;;;13.80;53.70;;;;;;5114938;28;20014;-77
2023/04/09 08:07:24;;;;;;;;;;;13.80;53.70;;;;;;5096486;28;19971;-76
2023/04/09 08:09:50;;;;;;;;;;;13.80;53.60;;;;;;5114561;28;19978;-72
2023/04/09 08:12:15;;;;;;;;;;;13.80;53.60;;;;;;5096478;28;20463;-72
2023/04/09 08:14:42;;;;;;;;;;;13.80;53.60;;;;;;5096786;28;19974;-77
2023/04/09 08:17:08;;;;;;;;;;;13.80;53.60;;;;;;5096684;28;20390;-74
2023/04/09 08:19:34;;;;;;;;;;;13.90;54.40;;;;;;5114617;28;19924;-77
2023/04/09 08:22:00;;;;;;;;;;;13.90;53.60;;;;;;5114580;28;19920;-73
2023/04/09 08:24:26;;;;;;;;;;;13.80;53.60;;;;;;5096160;28;19920;-74
2023/04/09 08:26:51;;;;;;;;;;;13.90;53.50;;;;;;5096220;28;19985;-73
2023/04/09 08:29:17;;;;;;;;;;;13.90;53.50;;;;;;5096072;28;19924;-73
2023/04/09 08:31:42;;;;;;;;;;;13.90;53.60;;;;;;5096076;28;19989;-73
2023/04/09 08:34:08;;;;;;;;;;;13.90;53.60;;;;;;5114292;28;19920;-77
2023/04/09 08:36:34;;;;;;;;;;;13.90;53.60;;;;;;5114517;28;20019;-77
2023/04/09 08:39:00;;;;;;;;;;;13.90;53.60;;;;;;5095895;28;20302;-77
2023/04/09 08:41:28;;;;;;;;;;;13.90;53.50;;;;;;5095977;28;19927;-77
2023/04/09 08:43:53;;;;;;;;;;;13.90;53.50;;;;;;5096296;28;19920;-74
2023/04/09 08:46:19;;;;;;;;;;;14.00;53.50;;;;;;5096278;28;19972;-74
2023/04/09 08:48:46;;;;;;;;;;;14.00;53.50;;;;;;5113871;28;19967;-75
2023/04/09 08:51:12;;;;;;;;;;;14.00;53.60;;;;;;5095785;28;19994;-74
2023/04/09 08:53:39;;;;;;;;;;;14.00;53.40;;;;;;5113949;28;19923;-74
2023/04/09 08:56:04;;;;;;;;;;;14.00;53.40;;;;;;5113924;28;19974;-72
2023/04/09 08:58:30;;;;;;;;;;;14.00;53.40;;;;;;5113891;28;19967;-77
2023/04/09 09:00:55;;;;;;;;;;;14.00;53.40;;;;;;5113819;28;19978;-78
2023/04/09 09:03:21;;;;;;;;;;;14.00;53.40;;;;;;5095691;28;19968;-77
2023/04/09 09:05:46;;;;;;;;;;;14.00;53.30;;;;;;5095425;28;20019;-73
2023/04/09 09:08:13;;;;;;;;;;;14.10;53.40;;;;;;5095332;28;19924;-78
2023/04/09 09:10:40;;;;;;;;;;;14.00;53.20;;;;;;5095270;28;19970;-78
2023/04/09 09:13:26;;;;;;;;;;;14.10;53.40;;;;;;5095697;28;19919;-78
2023/04/09 09:15:55;;;;;;;;;;;14.10;53.40;;;;;;5095041;28;19927;-77
2023/04/09 09:18:35;;;;;;;;;;;14.10;53.30;;;;;;5095107;28;19981;-77
2023/04/09 09:21:09;;;;;;;;;;;14.10;53.30;;;;;;5095253;28;19926;-78
2023/04/09 09:23:35;;;;;;;;;;;14.10;53.30;;;;;;5095438;28;19964;-73
2023/04/09 09:26:09;;;;;;;;;;;14.10;53.30;;;;;;5095549;28;19920;-73
2023/04/09 09:28:35;;;;;;;;;;;14.10;53.30;;;;;;5095240;28;19942;-78
2023/04/09 09:31:06;;;;;;;;;;;14.10;53.20;;;;;;5094976;28;19927;-78
2023/04/09 09:33:32;;;;;;;;;;;14.10;53.20;;;;;;5095290;28;20401;-78
2023/04/09 09:35:58;;;;;;;;;;;14.20;53.20;;;;;;5094874;28;20012;-78
2023/04/09 09:38:23;;;;;;;;;;;14.20;53.30;;;;;;5095010;28;20086;-78
2023/04/09 09:40:49;;;;;;;;;;;14.20;53.30;;;;;;5095050;28;20014;-78
2023/04/09 09:43:14;;;;;;;;;;;14.20;53.10;;;;;;5094802;28;19965;-79
2023/04/09 09:45:43;;;;;;;;;;;14.20;52.90;;;;;;5094701;28;19920;-79
2023/04/09 09:48:09;;;;;;;;;;;14.20;52.90;;;;;;5094036;28;19926;-79
2023/04/09 09:50:36;;;;;;;;;;;14.20;52.80;;;;;;5094940;28;19928;-78
2023/04/09 09:53:04;;;;;;;;;;;14.20;52.90;;;;;;5094670;28;20313;-77
2023/04/09 09:55:30;;;;;;;;;;;14.20;52.90;;;;;;5095023;28;20586;-72
2023/04/09 09:57:57;;;;;;;;;;;14.20;53.00;;;;;;5112906;28;20196;-78
2023/04/09 10:00:24;;;;;;;;;;;14.20;53.00;;;;;;5094604;28;19924;-74
2023/04/09 10:02:55;;;;;;;;;;;14.20;53.00;;;;;;5094510;28;20442;-78
2023/04/09 10:05:25;;;;;;;;;;;14.30;53.00;;;;;;5094647;28;19955;-74
2023/04/09 10:07:53;;;;;;;;;;;14.30;53.00;;;;;;5112541;28;19980;-78
2023/04/09 10:10:18;;;;;;;;;;;14.30;52.90;;;;;;5094440;28;19928;-75
2023/04/09 10:12:44;;;;;;;;;;;14.30;52.90;;;;;;5094317;28;20010;-74
2023/04/09 10:15:10;;;;;;;;;;;14.30;52.90;;;;;;5094535;28;20397;-77
2023/04/09 10:17:35;;;;;;;;;;;14.30;52.90;;;;;;5094617;28;20271;-78
2023/04/09 10:20:11;;;;;;;;;;;14.30;52.80;;;;;;5094766;28;20290;-78
2023/04/09 10:22:37;;;;;;;;;;;14.30;52.90;;;;;;5094341;28;19919;-78
2023/04/09 10:25:03;;;;;;;;;;;14.40;52.80;;;;;;5094290;28;19920;-78
2023/04/09 10:27:30;;;;;;;;;;;14.40;52.80;;;;;;5094275;28;19926;-77
2023/04/09 10:29:55;;;;;;;;;;;14.30;52.80;;;;;;5094860;28;19928;-78
2023/04/09 10:32:22;;;;;;;;;;;14.30;52.80;;;;;;5116858;28;19919;-78
2023/04/09 10:34:49;;;;;;;;;;;14.40;52.70;;;;;;5097722;28;19973;-78
2023/04/09 10:37:15;;;;;;;;;;;14.40;52.90;;;;;;5098856;28;19920;-78
2023/04/09 10:39:46;;;;;;;;;;;14.40;52.80;;;;;;5098354;28;19920;-78
2023/04/09 10:42:13;;;;;;;;;;;14.40;52.80;;;;;;5098164;28;19928;-78
2023/04/09 10:44:40;;;;;;;;;;;14.40;52.70;;;;;;5098557;28;20074;-78
2023/04/09 10:47:07;;;;;;;;;;;14.40;52.70;;;;;;5098180;28;20385;-79
2023/04/09 10:49:37;;;;;;;;;;;14.40;52.90;;;;;;5098133;28;20291;-78
2023/04/09 10:54:44;;;;;;;;;;;14.40;52.90;;;;;;5110644;27;19934;-77
2023/04/09 10:59:51;;;;;;;;;;;14.40;52.80;;;;;;5089742;28;19912;-73
2023/04/09 11:02:37;;;;;;;;;;;14.40;53.00;;;;;;5088589;28;19920;-78
2023/04/09 11:05:13;;;;;;;;;;;14.40;52.90;;;;;;5088534;28;20355;-78
2023/04/09 11:07:42;;;;;;;;;;;14.40;52.80;;;;;;5088822;28;19921;-77
2023/04/09 11:10:08;;;;;;;;;;;14.40;52.90;;;;;;5088544;28;20007;-75
2023/04/09 11:12:34;;;;;;;;;;;14.40;52.90;;;;;;5088457;28;20003;-78
2023/04/09 11:14:59;;;;;;;;;;;14.40;52.90;;;;;;5088687;28;19924;-77
2023/04/09 11:17:25;;;;;;;;;;;14.40;52.80;;;;;;5089529;28;20293;-77
2023/04/09 11:19:50;;;;;;;;;;;14.40;52.90;;;;;;5088257;28;19970;-77
2023/04/09 11:22:16;;;;;;;;;;;14.40;52.90;;;;;;5087647;28;19970;-78
2023/04/09 11:24:42;;;;;;;;;;;14.40;52.90;;;;;;5088232;28;19970;-77
2023/04/09 11:27:07;;;;;;;;;;;14.40;52.90;;;;;;5088725;28;19920;-78
2023/04/09 11:29:34;;;;;;;;;;;14.40;53.00;;;;;;5088159;28;20368;-78
2023/04/09 11:31:59;;;;;;;;;;;14.40;52.80;;;;;;5088115;28;19921;-78
2023/04/09 11:34:26;;;;;;;;;;;14.40;52.90;;;;;;5088241;28;19946;-77
2023/04/09 11:36:52;;;;;;;;;;;14.50;53.00;;;;;;5089156;28;20040;-78
2023/04/09 11:39:18;;;;;;;;;;;14.40;53.00;;;;;;5089244;28;20007;-78
2023/04/09 11:41:43;;;;;;;;;;;14.40;52.90;;;;;;5087900;28;19920;-77
2023/04/09 11:44:09;;;;;;;;;;;14.40;53.00;;;;;;5087824;28;19966;-78
2023/04/09 11:46:34;;;;;;;;;;;14.50;52.90;;;;;;5088088;28;19946;-78
2023/04/09 11:49:00;;;;;;;;;;;14.50;52.90;;;;;;5088111;28;19920;-77
2023/04/09 11:51:27;;;;;;;;;;;14.50;52.90;;;;;;5088896;28;19962;-77
2023/04/09 11:53:53;;;;;;;;;;;14.40;52.90;;;;;;5087959;28;19921;-77
2023/04/09 11:56:19;;;;;;;;;;;14.50;52.90;;;;;;5087888;28;20447;-77
2023/04/09 11:58:46;;;;;;;;;;;14.50;52.90;;;;;;5087185;28;19967;-78
2023/04/09 12:01:12;;;;;;;;;;;14.50;52.80;;;;;;5088747;28;19970;-75
2023/04/09 12:03:38;;;;;;;;;;;14.50;52.90;;;;;;5087443;28;19920;-77
2023/04/09 12:06:05;;;;;;;;;;;14.50;52.90;;;;;;5088564;28;20010;-77
2023/04/09 12:08:33;;;;;;;;;;;14.50;53.00;;;;;;5088699;28;19924;-78
2023/04/09 12:11:14;;;;;;;;;;;14.50;52.90;;;;;;5074875;28;19921;-78
2023/04/09 12:13:42;;;;;;;;;;;14.50;52.90;;;;;;5073905;28;20436;-78
2023/04/09 12:16:08;;;;;;;;;;;14.50;53.00;;;;;;5073784;28;19973;-77
2023/04/09 12:18:36;;;;;;;;;;;14.50;52.90;;;;;;5074915;28;20333;-75
2023/04/09 12:21:01;;;;;;;;;;;14.50;52.90;;;;;;5073630;28;19924;-77
2023/04/09 12:23:27;;;;;;;;;;;14.50;53.00;;;;;;5074090;28;19920;-73
2023/04/09 12:25:54;;;;;;;;;;;14.50;53.00;;;;;;5073556;28;20427;-77
2023/04/09 12:28:19;;;;;;;;;;;14.50;52.90;;;;;;5073867;28;19970;-76
2023/04/09 12:30:45;;;;;;;;;;;14.50;52.90;;;;;;5074656;28;19920;-75
2023/04/09 12:33:11;;;;;;;;;;;14.50;52.90;;;;;;5073447;28;19970;-77
2023/04/09 12:35:36;;;;;;;;;;;14.50;52.90;;;;;;5073643;28;19920;-78
2023/04/09 12:38:03;;;;;;;;;;;14.50;52.80;;;;;;5073403;28;19929;-77
2023/04/09 12:40:29;;;;;;;;;;;14.50;52.90;;;;;;5073421;28;19974;-77
2023/04/09 12:42:55;;;;;;;;;;;14.50;52.80;;;;;;5073211;28;19920;-78
2023/04/09 12:45:21;;;;;;;;;;;14.50;52.90;;;;;;5073255;28;19921;-77
2023/04/09 12:47:46;;;;;;;;;;;14.50;52.80;;;;;;5074357;28;19927;-77
2023/04/09 12:50:13;;;;;;;;;;;14.60;52.90;;;;;;5074349;28;19924;-76
2023/04/09 12:52:39;;;;;;;;;;;14.50;52.80;;;;;;5073338;28;20007;-73
2023/04/09 12:55:05;;;;;;;;;;;14.50;53.00;;;;;;5073416;28;20011;-77
2023/04/09 12:57:31;;;;;;;;;;;14.50;53.00;;;;;;5074144;28;19956;-77
2023/04/09 12:59:57;;;;;;;;;;;14.50;52.90;;;;;;5076584;28;20400;-78
2023/04/09 13:02:22;;;;;;;;;;;14.50;52.90;;;;;;5076057;28;19940;-77
2023/04/09 13:04:48;;;;;;;;;;;14.60;52.90;;;;;;5076194;28;19927;-77
2023/04/09 13:07:14;;;;;;;;;;;14.50;52.90;;;;;;5076305;28;19924;-76
2023/04/09 13:09:41;;;;;;;;;;;14.60;53.00;;;;;;5094273;28;20374;-77
2023/04/09 13:12:06;;;;;;;;;;;14.60;52.90;;;;;;5075955;28;19967;-76
2023/04/09 13:14:32;;;;;;;;;;;14.60;52.90;;;;;;5094266;28;19927;-77
2023/04/09 13:16:57;;;;;;;;;;;14.60;52.80;;;;;;5076014;28;19920;-76
2023/04/09 13:19:23;;;;;;;;;;;14.60;52.90;;;;;;5075798;28;20019;-76
2023/04/09 13:21:49;;;;;;;;;;;14.60;52.90;;;;;;5075069;28;19920;-74
2023/04/09 13:24:14;;;;;;;;;;;14.60;52.80;;;;;;5075991;28;19920;-77
2023/04/09 13:26:40;;;;;;;;;;;14.60;52.80;;;;;;5075785;28;20302;-75
2023/04/09 13:29:07;;;;;;;;;;;14.60;52.80;;;;;;5075659;28;20225;-76
2023/04/09 13:31:35;;;;;;;;;;;14.60;52.80;;;;;;5075677;28;19930;-74
2023/04/09 13:34:01;;;;;;;;;;;14.60;53.50;;;;;;5075547;28;19926;-74
2023/04/09 13:36:27;;;;;;;;;;;14.60;52.80;;;;;;5075375;28;19927;-77
2023/04/09 13:38:53;;;;;;;;;;;14.60;53.40;;;;;;5093469;28;19924;-74
2023/04/09 13:41:18;;;;;;;;;;;14.60;52.70;;;;;;5075799;28;19955;-73
2023/04/09 13:43:44;;;;;;;;;;;14.60;52.60;;;;;;5093550;28;20402;-76
2023/04/09 13:46:09;;;;;;;;;;;14.70;52.70;;;;;;5075010;28;19935;-77
2023/04/09 13:48:35;;;;;;;;;;;14.70;52.80;;;;;;5075028;28;20268;-74
2023/04/09 13:51:00;;;;;;;;;;;14.70;52.70;;;;;;5075485;28;19927;-73
2023/04/09 13:53:29;;;;;;;;;;;14.70;52.70;;;;;;5075435;28;20006;-76
2023/04/09 13:55:55;;;;;;;;;;;14.70;52.70;;;;;;5075476;28;19920;-76
2023/04/09 13:58:22;;;;;;;;;;;14.70;52.80;;;;;;5074998;28;19924;-77
2023/04/09 14:00:47;;;;;;;;;;;14.70;52.60;;;;;;5093228;28;19920;-76
2023/04/09 14:03:13;;;;;;;;;;;14.70;52.60;;;;;;5075025;28;19920;-77
2023/04/09 14:05:38;;;;;;;;;;;14.70;52.70;;;;;;5074938;28;19924;-77
2023/04/09 14:08:04;;;;;;;;;;;14.70;52.60;;;;;;5093363;28;20286;-76
2023/04/09 14:10:29;;;;;;;;;;;14.70;52.70;;;;;;5074813;28;19920;-76
2023/04/09 14:12:55;;;;;;;;;;;14.70;52.60;;;;;;5074861;28;20023;-72
2023/04/09 14:15:21;;;;;;;;;;;14.70;52.60;;;;;;5074811;28;19967;-75
2023/04/09 14:17:46;;;;;;;;;;;14.70;52.50;;;;;;5074837;28;19924;-76
2023/04/09 14:20:11;;;;;;;;;;;14.70;52.50;;;;;;5074980;28;19959;-76
2023/04/09 14:22:37;;;;;;;;;;;14.70;52.50;;;;;;5074618;28;20011;-77
2023/04/09 14:25:03;;;;;;;;;;;14.70;52.50;;;;;;5074661;28;19927;-74
2023/04/09 14:27:28;;;;;;;;;;;14.70;52.50;;;;;;5075123;28;19955;-76
2023/04/09 14:29:54;;;;;;;;;;;14.80;52.50;;;;;;5092810;28;20026;-76